createdAt,value
2022-11-25T00:01:13.744Z,85.43
2022-11-25T00:03:42.025Z,92.10
2022-11-25T00:06:30.202Z,89.72
2022-11-25T00:09:05.467Z,91.32
2022-11-25T00:11:38.695Z,92.83
2022-11-25T00:14:06.751Z,91.47
2022-11-25T00:16:33.647Z,94.18
2022-11-25T00:19:00.417Z,91.60
2022-11-25T00:21:29.710Z,100.45
2022-11-25T00:23:59.172Z,101.38
2022-11-25T00:26:27.768Z,89.00
2022-11-25T00:28:54.999Z,104.57
2022-11-25T00:31:27.008Z,96.03
2022-11-25T00:33:54.390Z,97.60
2022-11-25T00:36:29.717Z,98.72
2022-11-25T00:38:59.240Z,94.17
2022-11-25T00:41:48.031Z,91.57
2022-11-25T00:44:36.334Z,88.30
2022-11-25T00:47:20.761Z,88.70
2022-11-25T00:49:56.342Z,90.68
2022-11-25T00:52:26.592Z,90.35
2022-11-25T00:54:53.784Z,89.70
2022-11-25T00:57:23.017Z,90.35
2022-11-25T00:59:52.861Z,89.72
2022-11-25T01:02:20.421Z,115.30
2022-11-25T01:04:47.735Z,107.60
2022-11-25T01:07:15.144Z,149.77
2022-11-25T01:09:41.862Z,111.80
2022-11-25T01:12:09.790Z,134.32
2022-11-25T01:14:38.346Z,137.98
2022-11-25T01:17:05.550Z,111.20
2022-11-25T01:19:32.207Z,124.45
2022-11-25T01:21:59.055Z,117.80
2022-11-25T01:24:26.768Z,116.50
2022-11-25T01:26:55.609Z,123.57
2022-11-25T01:29:22.609Z,102.32
2022-11-25T01:31:49.442Z,123.10
2022-11-25T01:34:19.361Z,114.40
2022-11-25T01:36:46.301Z,119.43
2022-11-25T01:39:27.011Z,140.05
2022-11-25T01:41:57.025Z,113.10
2022-11-25T01:44:28.226Z,117.32
2022-11-25T01:47:01.227Z,107.20
2022-11-25T01:49:42.813Z,117.40
2022-11-25T01:52:19.028Z,108.90
2022-11-25T01:54:58.369Z,107.47
2022-11-25T01:57:31.513Z,106.22
2022-11-25T02:00:01.350Z,105.25
2022-11-25T02:02:29.217Z,99.55
2022-11-25T02:04:57.921Z,104.93
2022-11-25T02:07:39.043Z,100.82
2022-11-25T02:10:12.026Z,96.63
2022-11-25T02:12:41.476Z,97.95
2022-11-25T02:15:09.090Z,86.78
2022-11-25T02:17:35.693Z,97.93
2022-11-25T02:20:16.283Z,90.88
2022-11-25T02:23:26.805Z,87.40
2022-11-25T02:25:54.363Z,89.35
2022-11-25T02:28:27.174Z,98.22
2022-11-25T02:30:54.772Z,89.43
2022-11-25T02:33:21.991Z,105.13
2022-11-25T02:35:50.450Z,99.03
2022-11-25T02:38:31.198Z,92.40
2022-11-25T02:41:12.029Z,87.13
2022-11-25T02:43:39.716Z,81.18
2022-11-25T02:46:11.759Z,93.40
2022-11-25T02:49:07.306Z,95.45
2022-11-25T02:51:30.496Z,90.57
2022-11-25T02:53:59.015Z,83.65
2022-11-25T02:56:29.515Z,87.60
2022-11-25T02:58:56.527Z,84.47
2022-11-25T03:01:23.335Z,90.13
2022-11-25T03:03:50.175Z,90.93
2022-11-25T03:06:17.088Z,104.25
2022-11-25T03:08:43.734Z,102.72
2022-11-25T03:11:10.440Z,109.18
2022-11-25T03:13:38.509Z,100.47
2022-11-25T03:16:07.799Z,105.80
2022-11-25T03:18:34.917Z,93.53
2022-11-25T03:21:01.722Z,105.35
2022-11-25T03:23:28.707Z,106.72
2022-11-25T03:25:55.688Z,114.90
2022-11-25T03:28:22.463Z,116.05
2022-11-25T03:30:49.098Z,112.70
2022-11-25T03:33:15.731Z,103.78
2022-11-25T03:35:42.388Z,98.25
2022-11-25T03:38:09.156Z,97.25
2022-11-25T03:40:38.126Z,95.38
2022-11-25T03:43:06.475Z,99.68
2022-11-25T03:45:33.205Z,95.22
2022-11-25T03:48:00.005Z,94.63
2022-11-25T03:50:26.744Z,90.38
2022-11-25T03:52:53.352Z,83.63
2022-11-25T03:55:20.683Z,95.60
2022-11-25T03:57:47.239Z,94.85
2022-11-25T04:00:14.065Z,90.88
2022-11-25T04:02:40.857Z,98.35
2022-11-25T04:05:10.302Z,90.10
2022-11-25T04:07:38.181Z,92.43
2022-11-25T04:10:08.193Z,97.57
2022-11-25T04:12:46.903Z,90.70
2022-11-25T04:15:15.759Z,67.80
2022-11-25T04:17:45.994Z,85.07
2022-11-25T04:20:13.513Z,83.32
2022-11-25T04:22:40.657Z,88.55
2022-11-25T04:25:09.539Z,79.85
2022-11-25T04:27:36.408Z,86.05
2022-11-25T04:30:03.480Z,85.70
2022-11-25T04:32:30.244Z,86.13
2022-11-25T04:34:56.874Z,89.20
2022-11-25T04:37:23.584Z,109.50
2022-11-25T04:39:50.494Z,90.47
2022-11-25T04:42:34.441Z,92.68
2022-11-25T04:45:26.511Z,96.00
2022-11-25T04:47:50.998Z,86.95
2022-11-25T04:50:21.553Z,84.82
2022-11-25T04:52:48.285Z,86.80
2022-11-25T04:55:15.071Z,95.60
2022-11-25T04:57:41.649Z,76.20
2022-11-25T05:00:09.661Z,47.25
2022-11-25T05:02:36.388Z,70.05
2022-11-25T05:05:03.363Z,75.97
2022-11-25T05:07:30.232Z,84.13
2022-11-25T05:09:57.716Z,81.45
2022-11-25T05:12:28.708Z,95.93
2022-11-25T05:14:56.003Z,91.50
2022-11-25T05:17:25.962Z,83.10
2022-11-25T05:19:54.120Z,90.43
2022-11-25T05:22:24.775Z,92.95
2022-11-25T05:24:51.769Z,89.68
2022-11-25T05:27:22.557Z,100.25
2022-11-25T05:29:55.482Z,108.78
2022-11-25T05:32:23.091Z,108.90
2022-11-25T05:34:51.250Z,109.65
2022-11-25T05:37:23.978Z,101.53
2022-11-25T05:39:51.415Z,99.13
2022-11-25T05:42:18.177Z,90.05
2022-11-25T05:44:44.781Z,85.20
2022-11-25T05:47:11.365Z,91.07
2022-11-25T05:49:38.275Z,85.90
2022-11-25T05:52:05.089Z,90.30
2022-11-25T05:54:31.775Z,80.30
2022-11-25T05:56:58.428Z,91.78
2022-11-25T05:59:25.136Z,102.13
2022-11-25T06:01:53.911Z,88.43
2022-11-25T06:04:20.498Z,95.93
2022-11-25T06:06:47.416Z,106.50
2022-11-25T06:09:14.206Z,94.40
2022-11-25T06:11:42.211Z,98.93
2022-11-25T06:14:08.929Z,85.57
2022-11-25T06:16:36.632Z,91.47
2022-11-25T06:19:07.245Z,91.35
2022-11-25T06:21:34.951Z,82.50
2022-11-25T06:24:07.644Z,85.22
2022-11-25T06:26:34.291Z,92.72
2022-11-25T06:29:00.886Z,92.70
2022-11-25T06:31:27.677Z,91.32
2022-11-25T06:33:55.064Z,86.00
2022-11-25T06:36:23.121Z,84.68
2022-11-25T06:38:52.790Z,60.35
2022-11-25T06:41:20.553Z,94.95
2022-11-25T06:43:47.243Z,81.65
2022-11-25T06:46:19.698Z,93.50
2022-11-25T06:48:49.748Z,85.35
2022-11-25T06:51:19.748Z,94.03
2022-11-25T06:53:46.986Z,73.25
2022-11-25T06:56:18.937Z,88.60
2022-11-25T06:58:46.904Z,90.90
2022-11-25T07:01:19.773Z,91.57
2022-11-25T07:03:48.739Z,87.30
2022-11-25T07:06:17.372Z,102.07
2022-11-25T07:08:44.934Z,108.00
2022-11-25T07:11:18.117Z,108.43
2022-11-25T07:13:45.014Z,92.88
2022-11-25T07:16:12.647Z,91.10
2022-11-25T07:18:40.242Z,96.57
2022-11-25T07:21:16.259Z,97.57
2022-11-25T07:23:45.175Z,92.72
2022-11-25T07:26:14.655Z,101.80
2022-11-25T07:28:42.300Z,94.03
2022-11-25T07:31:24.838Z,100.57
2022-11-25T07:34:05.781Z,98.03
2022-11-25T07:36:34.510Z,104.40
2022-11-25T07:39:05.083Z,103.25
2022-11-25T07:41:31.878Z,94.90
2022-11-25T07:44:05.555Z,96.57
2022-11-25T07:46:38.758Z,109.63
2022-11-25T07:49:13.999Z,89.30
2022-11-25T07:51:41.823Z,103.72
2022-11-25T07:54:11.168Z,97.78
2022-11-25T07:56:39.402Z,101.80
2022-11-25T07:59:07.146Z,105.50
2022-11-25T08:01:33.867Z,113.90
2022-11-25T08:04:00.561Z,105.43
2022-11-25T08:06:29.978Z,108.82
2022-11-25T08:08:59.488Z,103.75
2022-11-25T08:11:29.409Z,100.50
2022-11-25T08:13:56.952Z,97.63
2022-11-25T08:16:27.455Z,87.90
2022-11-25T08:19:01.221Z,83.93
2022-11-25T08:21:28.735Z,98.00
2022-11-25T08:23:55.612Z,101.35
2022-11-25T08:26:24.044Z,102.63
2022-11-25T08:28:50.780Z,107.53
2022-11-25T08:31:24.607Z,109.28
2022-11-25T08:33:53.193Z,117.45
2022-11-25T08:36:21.373Z,118.90
2022-11-25T08:38:52.293Z,119.50
2022-11-25T08:41:21.605Z,115.68
2022-11-25T08:43:48.705Z,139.55
2022-11-25T08:46:19.999Z,117.18
2022-11-25T08:48:48.046Z,120.03
2022-11-25T08:51:18.947Z,129.77
2022-11-25T08:53:46.298Z,140.73
2022-11-25T08:56:13.783Z,109.13
2022-11-25T08:58:40.609Z,105.20
2022-11-25T09:01:08.785Z,118.53
2022-11-25T09:03:38.663Z,101.28
2022-11-25T09:06:06.567Z,103.32
2022-11-25T09:08:35.073Z,104.80
2022-11-25T09:11:03.848Z,102.93
2022-11-25T09:13:33.079Z,96.32
2022-11-25T09:16:01.502Z,111.32
2022-11-25T09:18:30.413Z,104.82
2022-11-25T09:20:57.900Z,102.53
2022-11-25T09:23:25.825Z,97.20
2022-11-25T09:25:57.902Z,92.15
2022-11-25T09:28:26.880Z,85.07
2022-11-25T09:30:56.003Z,82.82
2022-11-25T09:33:23.359Z,79.32
2022-11-25T09:35:50.544Z,83.13
2022-11-25T09:38:17.324Z,77.15
2022-11-25T09:41:05.667Z,79.45
2022-11-25T09:44:24.747Z,95.65
2022-11-25T09:47:17.426Z,88.82
2022-11-25T09:49:55.279Z,67.97
2022-11-25T09:52:43.396Z,67.03
2022-11-25T09:55:19.818Z,59.15
2022-11-25T09:58:18.506Z,53.40
2022-11-25T10:00:50.156Z,59.05
2022-11-25T10:03:30.733Z,55.15
2022-11-25T10:06:27.640Z,56.88
2022-11-25T10:09:11.540Z,60.33
2022-11-25T10:11:53.922Z,53.05
2022-11-25T10:14:42.953Z,49.83
2022-11-25T10:17:43.159Z,49.58
2022-11-25T10:20:20.016Z,45.38
2022-11-25T10:22:50.671Z,43.85
2022-11-25T10:25:20.428Z,38.95
2022-11-25T10:27:58.811Z,39.10
2022-11-25T10:30:40.974Z,42.78
2022-11-25T10:33:14.089Z,44.03
2022-11-25T10:35:56.257Z,38.75
2022-11-25T10:38:30.665Z,44.95
2022-11-25T10:40:57.351Z,41.53
2022-11-25T10:43:30.224Z,34.25
2022-11-25T10:46:15.805Z,27.93
2022-11-25T10:48:53.739Z,25.58
2022-11-25T10:51:27.109Z,23.48
2022-11-25T10:54:12.210Z,23.65
2022-11-25T10:56:59.529Z,25.30
2022-11-25T10:59:33.658Z,23.23
2022-11-25T11:02:29.916Z,21.88
2022-11-25T11:05:14.518Z,24.48
2022-11-25T11:07:44.064Z,30.45
2022-11-25T11:10:13.870Z,37.25
2022-11-25T11:13:01.232Z,38.83
2022-11-25T11:15:42.699Z,35.72
2022-11-25T11:18:38.431Z,36.85
2022-11-25T11:21:23.829Z,34.50
2022-11-25T11:23:55.737Z,33.72
2022-11-25T11:26:36.081Z,39.58
2022-11-25T11:29:19.698Z,31.25
2022-11-25T11:31:50.471Z,30.75
2022-11-25T11:34:42.871Z,28.98
2022-11-25T11:37:39.124Z,34.63
2022-11-25T11:40:22.435Z,28.03
2022-11-25T11:42:55.517Z,28.95
2022-11-25T11:45:25.165Z,28.83
2022-11-25T11:48:34.687Z,27.63
2022-11-25T11:51:25.953Z,28.95
2022-11-25T11:54:16.167Z,26.95
2022-11-25T11:56:55.023Z,19.50
2022-11-25T11:59:46.983Z,28.85
2022-11-25T12:02:50.134Z,29.02
2022-11-25T12:05:24.015Z,23.35
2022-11-25T12:08:06.042Z,27.27
2022-11-25T12:10:53.141Z,24.13
2022-11-25T12:13:19.891Z,23.77
2022-11-25T12:16:01.493Z,25.17
2022-11-25T12:19:05.604Z,28.80
2022-11-25T12:22:19.803Z,21.25
2022-11-25T12:24:57.905Z,22.17
2022-11-25T12:27:40.883Z,25.63
2022-11-25T12:30:41.747Z,24.77
2022-11-25T12:33:20.940Z,21.13
2022-11-25T12:36:10.642Z,37.83
2022-11-25T12:38:57.397Z,27.05
2022-11-25T12:41:47.220Z,24.70
2022-11-25T12:44:22.426Z,30.15
2022-11-25T12:47:07.842Z,23.83
2022-11-25T12:49:42.727Z,25.73
2022-11-25T12:52:24.170Z,21.95
2022-11-25T12:55:30.165Z,19.92
2022-11-25T12:58:18.705Z,21.65
2022-11-25T13:01:06.343Z,25.70
2022-11-25T13:04:01.067Z,27.63
2022-11-25T13:06:39.754Z,27.58
2022-11-25T13:09:21.607Z,22.27
2022-11-25T13:12:15.111Z,22.05
2022-11-25T13:14:45.751Z,27.02
2022-11-25T13:17:15.482Z,30.80
2022-11-25T13:19:42.441Z,23.38
2022-11-25T13:22:20.839Z,22.13
2022-11-25T13:24:48.273Z,23.52
2022-11-25T13:27:36.727Z,26.05
2022-11-25T13:30:04.842Z,33.28
2022-11-25T13:32:34.545Z,27.15
2022-11-25T13:35:31.526Z,26.55
2022-11-25T13:37:58.155Z,25.70
2022-11-25T13:40:39.236Z,23.83
2022-11-25T13:43:20.397Z,27.13
2022-11-25T13:45:47.505Z,21.42
2022-11-25T13:48:34.005Z,24.40
2022-11-25T13:51:23.003Z,22.55
2022-11-25T13:54:06.556Z,21.58
2022-11-25T13:56:37.308Z,23.42
2022-11-25T13:59:15.758Z,22.48
2022-11-25T14:01:54.497Z,24.92
2022-11-25T14:05:05.466Z,26.77
2022-11-25T14:07:53.953Z,27.52
2022-11-25T14:10:26.562Z,24.67
2022-11-25T14:13:33.176Z,27.90
2022-11-25T14:16:28.832Z,25.27
2022-11-25T14:19:51.198Z,28.25
2022-11-25T14:22:41.944Z,22.25
2022-11-25T14:25:20.774Z,27.48
2022-11-25T14:27:53.131Z,20.60
2022-11-25T14:30:19.992Z,29.15
2022-11-25T14:33:17.505Z,28.77
2022-11-25T14:35:49.948Z,22.65
2022-11-25T14:38:22.466Z,27.77
2022-11-25T14:41:16.429Z,29.65
2022-11-25T14:43:51.067Z,26.45
2022-11-25T14:46:24.412Z,29.95
2022-11-25T14:48:56.635Z,27.20
2022-11-25T14:51:41.941Z,31.08
2022-11-25T14:54:09.891Z,36.85
2022-11-25T14:56:37.972Z,33.47
2022-11-25T14:59:08.195Z,26.60
2022-11-25T15:01:37.816Z,27.08
2022-11-25T15:04:15.804Z,30.35
2022-11-25T15:06:49.585Z,25.60
2022-11-25T15:09:41.366Z,26.27
2022-11-25T15:12:13.962Z,23.27
2022-11-25T15:14:45.014Z,28.00
2022-11-25T15:17:38.151Z,19.08
2022-11-25T15:20:13.053Z,20.90
2022-11-25T15:22:40.073Z,21.58
2022-11-25T15:25:10.657Z,24.08
2022-11-25T15:27:48.774Z,20.92
2022-11-25T15:30:23.111Z,22.63
2022-11-25T15:32:50.582Z,21.48
2022-11-25T15:35:23.851Z,22.70
2022-11-25T15:37:50.774Z,22.60
2022-11-25T15:40:30.718Z,20.80
2022-11-25T15:43:04.403Z,21.63
2022-11-25T15:45:46.677Z,43.08
2022-11-25T15:48:42.683Z,46.70
2022-11-25T15:51:43.282Z,44.00
2022-11-25T15:54:13.783Z,38.25
2022-11-25T15:56:45.679Z,38.45
2022-11-25T15:59:47.569Z,39.05
2022-11-25T16:02:41.657Z,40.33
2022-11-25T16:05:26.179Z,38.15
2022-11-25T16:07:55.041Z,31.17
2022-11-25T16:10:25.075Z,36.75
2022-11-25T16:13:23.717Z,47.17
2022-11-25T16:15:55.105Z,99.30
2022-11-25T16:18:46.399Z,102.10
2022-11-25T16:21:22.730Z,48.38
2022-11-25T16:23:54.212Z,62.90
2022-11-25T16:27:03.426Z,54.45
2022-11-25T16:29:39.572Z,53.63
2022-11-25T16:32:14.731Z,48.38
2022-11-25T16:34:41.976Z,54.42
2022-11-25T16:37:08.596Z,47.90
2022-11-25T16:39:36.553Z,46.03
2022-11-25T16:42:04.736Z,45.10
2022-11-25T16:44:33.829Z,44.50
2022-11-25T16:47:00.495Z,49.50
2022-11-25T16:49:30.569Z,43.10
2022-11-25T16:51:57.419Z,45.50
2022-11-25T16:54:25.628Z,46.70
2022-11-25T16:56:55.357Z,44.47
2022-11-25T16:59:41.053Z,54.78
2022-11-25T17:02:17.582Z,54.73
2022-11-25T17:04:45.094Z,54.25
2022-11-25T17:07:32.178Z,44.33
2022-11-25T17:09:59.759Z,42.60
2022-11-25T17:12:31.720Z,46.53
2022-11-25T17:15:01.753Z,42.03
2022-11-25T17:17:29.059Z,50.28
2022-11-25T17:19:57.223Z,46.00
2022-11-25T17:22:28.532Z,43.20
2022-11-25T17:24:55.247Z,49.95
2022-11-25T17:27:32.976Z,43.72
2022-11-25T17:30:04.565Z,40.92
2022-11-25T17:32:32.085Z,37.83
2022-11-25T17:35:01.599Z,36.13
2022-11-25T17:37:31.395Z,33.88
2022-11-25T17:39:58.035Z,32.83
2022-11-25T17:42:33.842Z,29.35
2022-11-25T17:45:00.896Z,28.95
2022-11-25T17:47:27.994Z,33.30
2022-11-25T17:49:54.791Z,30.35
2022-11-25T17:52:21.419Z,31.15
2022-11-25T17:54:48.079Z,38.42
2022-11-25T17:57:21.104Z,34.58
2022-11-25T17:59:47.937Z,35.15
2022-11-25T18:02:20.355Z,33.47
2022-11-25T18:04:50.356Z,44.17
2022-11-25T18:07:17.823Z,36.47
2022-11-25T18:09:45.309Z,37.97
2022-11-25T18:12:33.128Z,45.17
2022-11-25T18:15:07.690Z,41.80
2022-11-25T18:17:38.143Z,36.42
2022-11-25T18:20:26.655Z,50.78
2022-11-25T18:22:54.100Z,41.97
2022-11-25T18:25:24.899Z,51.40
2022-11-25T18:27:56.319Z,38.70
2022-11-25T18:30:27.146Z,43.00
2022-11-25T18:32:55.686Z,39.97
2022-11-25T18:35:27.008Z,39.42
2022-11-25T18:37:56.900Z,39.95
2022-11-25T18:40:28.112Z,38.17
2022-11-25T18:42:58.006Z,36.28
2022-11-25T18:45:28.011Z,37.40
2022-11-25T18:47:54.892Z,39.00
2022-11-25T18:50:25.674Z,33.70
2022-11-25T18:52:53.283Z,44.55
2022-11-25T18:55:22.307Z,68.63
2022-11-25T18:57:51.781Z,63.10
2022-11-25T19:00:32.275Z,52.35
2022-11-25T19:03:02.827Z,50.63
2022-11-25T19:05:33.412Z,55.15
2022-11-25T19:08:00.344Z,42.33
2022-11-25T19:10:38.399Z,45.50
2022-11-25T19:13:34.225Z,43.47
2022-11-25T19:16:13.117Z,48.85
2022-11-25T19:18:40.075Z,42.35
2022-11-25T19:21:06.682Z,39.53
2022-11-25T19:23:36.113Z,39.25
2022-11-25T19:26:11.563Z,39.45
2022-11-25T19:28:38.634Z,41.00
2022-11-25T19:31:06.075Z,44.35
2022-11-25T19:33:43.560Z,41.67
2022-11-25T19:36:21.132Z,45.28
2022-11-25T19:38:48.021Z,42.30
2022-11-25T19:41:14.640Z,43.55
2022-11-25T19:43:41.393Z,40.20
2022-11-25T19:46:52.747Z,42.67
2022-11-25T19:49:21.211Z,36.20
2022-11-25T19:51:48.909Z,40.13
2022-11-25T19:54:18.508Z,39.95
2022-11-25T19:56:45.850Z,35.88
2022-11-25T19:59:12.452Z,29.58
2022-11-25T20:01:42.914Z,34.97
2022-11-25T20:04:19.552Z,39.45
2022-11-25T20:06:47.756Z,40.13
2022-11-25T20:09:14.350Z,43.45
2022-11-25T20:11:42.210Z,42.03
2022-11-25T20:14:12.092Z,32.10
2022-11-25T20:16:41.888Z,34.03
2022-11-25T20:19:18.057Z,38.55
2022-11-25T20:21:48.890Z,32.42
2022-11-25T20:24:19.646Z,35.45
2022-11-25T20:26:48.737Z,32.53
2022-11-25T20:29:19.043Z,35.75
2022-11-25T20:31:45.841Z,33.15
2022-11-25T20:34:13.888Z,38.30
2022-11-25T20:36:42.954Z,38.92
2022-11-25T20:39:17.349Z,33.28
2022-11-25T20:41:48.440Z,43.95
2022-11-25T20:44:16.222Z,52.92
2022-11-25T20:46:42.865Z,58.55
2022-11-25T20:49:27.758Z,63.75
2022-11-25T20:51:54.574Z,69.60
2022-11-25T20:54:24.053Z,69.32
2022-11-25T20:56:50.665Z,72.40
2022-11-25T20:59:22.433Z,65.55
2022-11-25T21:01:50.659Z,65.18
2022-11-25T21:04:18.493Z,60.20
2022-11-25T21:06:45.893Z,51.03
2022-11-25T21:09:23.492Z,55.45
2022-11-25T21:11:52.013Z,44.92
2022-11-25T21:14:20.148Z,37.15
2022-11-25T21:16:47.347Z,43.55
2022-11-25T21:19:15.953Z,34.58
2022-11-25T21:21:45.986Z,36.83
2022-11-25T21:24:33.070Z,32.83
2022-11-25T21:27:02.801Z,34.00
2022-11-25T21:29:30.145Z,40.88
2022-11-25T21:31:57.022Z,39.78
2022-11-25T21:34:23.776Z,38.42
2022-11-25T21:36:52.104Z,40.92
2022-11-25T21:39:28.904Z,40.75
2022-11-25T21:41:59.412Z,53.83
2022-11-25T21:44:46.452Z,60.67
2022-11-25T21:47:18.501Z,96.53
2022-11-25T21:49:45.959Z,86.38
2022-11-25T21:52:12.930Z,57.55
2022-11-25T21:54:39.909Z,63.60
2022-11-25T21:57:14.890Z,48.70
2022-11-25T21:59:41.662Z,47.78
2022-11-25T22:02:20.785Z,48.53
2022-11-25T22:04:48.161Z,44.85
2022-11-25T22:07:14.925Z,46.78
2022-11-25T22:09:42.084Z,44.13
2022-11-25T22:12:28.337Z,42.85
2022-11-25T22:14:56.564Z,38.17
2022-11-25T22:17:23.201Z,45.75
2022-11-25T22:19:52.414Z,46.33
2022-11-25T22:22:19.779Z,45.25
2022-11-25T22:24:46.673Z,50.15
2022-11-25T22:27:36.434Z,45.90
2022-11-25T22:30:04.452Z,46.38
2022-11-25T22:32:31.387Z,54.83
2022-11-25T22:34:57.965Z,52.17
2022-11-25T22:37:25.051Z,55.38
2022-11-25T22:39:52.019Z,51.45
2022-11-25T22:42:37.087Z,51.17
2022-11-25T22:45:06.692Z,53.22
2022-11-25T22:47:42.867Z,52.28
2022-11-25T22:53:02.242Z,49.35
2022-11-25T22:55:32.323Z,52.90
2022-11-25T22:58:01.997Z,51.50
2022-11-25T23:00:32.508Z,46.40
2022-11-25T23:03:00.515Z,41.80
2022-11-25T23:05:33.884Z,42.75
2022-11-25T23:08:21.878Z,42.75
2022-11-25T23:10:49.736Z,44.67
2022-11-25T23:13:20.751Z,49.08
2022-11-25T23:15:59.445Z,46.45
2022-11-25T23:18:38.168Z,43.80
2022-11-25T23:21:07.335Z,52.00
2022-11-25T23:23:34.041Z,52.38
2022-11-25T23:26:00.706Z,58.13
2022-11-25T23:28:27.323Z,51.80
2022-11-25T23:30:58.893Z,47.50
2022-11-25T23:33:38.688Z,53.55
2022-11-25T23:36:30.757Z,55.22
2022-11-25T23:39:00.179Z,55.75
2022-11-25T23:41:29.699Z,59.58
2022-11-25T23:43:58.017Z,51.63
2022-11-25T23:46:31.495Z,51.35
2022-11-25T23:49:01.927Z,53.40
2022-11-25T23:51:29.761Z,57.33
2022-11-25T23:53:57.728Z,57.15
2022-11-25T23:56:26.526Z,57.08
2022-11-25T23:58:53.561Z,61.78
